createdAt,value
2023-02-11T00:01:41.988Z,3.63
2023-02-11T00:04:11.597Z,1.43
2023-02-11T00:06:53.318Z,1.40
2023-02-11T00:09:21.535Z,1.40
2023-02-11T00:11:51.346Z,1.77
2023-02-11T00:14:19.560Z,2.47
2023-02-11T00:16:47.782Z,2.53
2023-02-11T00:19:17.518Z,2.70
2023-02-11T00:21:47.076Z,1.40
2023-02-11T00:24:15.279Z,1.57
2023-02-11T00:26:43.455Z,3.07
2023-02-11T00:29:11.835Z,2.33
2023-02-11T00:31:40.249Z,5.20
2023-02-11T00:34:08.709Z,2.10
2023-02-11T00:36:38.419Z,1.40
2023-02-11T00:39:06.753Z,1.73
2023-02-11T00:41:35.419Z,3.63
2023-02-11T00:44:04.320Z,3.40
2023-02-11T00:46:32.850Z,3.20
2023-02-11T00:49:01.077Z,6.30
2023-02-11T00:51:30.237Z,2.83
2023-02-11T00:54:01.355Z,5.40
2023-02-11T00:56:29.546Z,8.17
2023-02-11T00:58:57.715Z,5.10
2023-02-11T01:01:26.224Z,7.07
2023-02-11T01:03:54.999Z,5.00
2023-02-11T01:06:23.491Z,5.40
2023-02-11T01:08:51.808Z,4.30
2023-02-11T01:11:23.046Z,5.80
2023-02-11T01:13:53.890Z,8.50
2023-02-11T01:16:23.991Z,4.53
2023-02-11T01:18:52.295Z,7.93
2023-02-11T01:21:20.781Z,6.67
2023-02-11T01:23:49.567Z,4.90
2023-02-11T01:26:17.951Z,12.80
2023-02-11T01:28:47.594Z,6.43
2023-02-11T01:31:15.833Z,6.03
2023-02-11T01:33:44.515Z,7.10
2023-02-11T01:36:13.767Z,8.10
2023-02-11T01:38:42.151Z,4.37
2023-02-11T01:41:12.742Z,9.77
2023-02-11T01:43:44.703Z,9.37
2023-02-11T01:46:24.907Z,8.53
2023-02-11T01:48:58.475Z,7.53
2023-02-11T01:51:32.669Z,4.87
2023-02-11T01:54:19.330Z,5.47
2023-02-11T01:57:08.194Z,7.93
2023-02-11T01:59:50.080Z,5.87
2023-02-11T02:02:25.076Z,4.87
2023-02-11T02:04:56.728Z,5.90
2023-02-11T02:07:30.476Z,7.90
2023-02-11T02:10:02.491Z,5.03
2023-02-11T02:12:30.943Z,7.17
2023-02-11T02:15:22.506Z,6.77
2023-02-11T02:18:01.889Z,5.73
2023-02-11T02:21:03.111Z,4.20
2023-02-11T02:23:42.424Z,10.13
2023-02-11T02:26:34.349Z,7.50
2023-02-11T02:29:35.849Z,9.40
2023-02-11T02:32:34.953Z,7.53
2023-02-11T02:35:12.153Z,10.53
2023-02-11T02:37:46.816Z,7.47
2023-02-11T02:40:20.434Z,5.67
2023-02-11T02:42:49.868Z,6.43
2023-02-11T02:45:18.719Z,8.17
2023-02-11T02:47:48.362Z,7.73
2023-02-11T02:50:21.410Z,9.87
2023-02-11T02:53:01.938Z,5.93
2023-02-11T02:55:45.618Z,7.50
2023-02-11T02:58:45.982Z,9.13
2023-02-11T03:01:27.846Z,6.33
2023-02-11T03:04:05.066Z,8.97
2023-02-11T03:06:39.466Z,6.33
2023-02-11T03:09:14.288Z,10.37
2023-02-11T03:11:42.824Z,9.87
2023-02-11T03:14:17.213Z,8.73
2023-02-11T03:16:47.534Z,10.33
2023-02-11T03:19:21.778Z,9.10
2023-02-11T03:21:52.926Z,7.83
2023-02-11T03:24:26.113Z,9.77
2023-02-11T03:26:56.562Z,7.17
2023-02-11T03:29:35.427Z,10.90
2023-02-11T03:32:12.438Z,10.13
2023-02-11T03:34:48.013Z,6.50
2023-02-11T03:37:21.596Z,6.20
2023-02-11T03:39:54.045Z,7.37
2023-02-11T03:42:24.535Z,3.80
2023-02-11T03:44:59.814Z,7.80
2023-02-11T03:47:30.446Z,4.60
2023-02-11T03:50:03.353Z,6.03
2023-02-11T03:52:35.431Z,10.37
2023-02-11T03:55:07.712Z,7.23
2023-02-11T03:57:36.209Z,7.47
2023-02-11T04:00:06.088Z,6.70
2023-02-11T04:02:37.557Z,8.70
2023-02-11T04:05:23.971Z,10.63
2023-02-11T04:07:53.718Z,7.67
2023-02-11T04:10:22.235Z,7.63
2023-02-11T04:12:50.536Z,8.10
2023-02-11T04:15:19.242Z,10.37
2023-02-11T04:17:47.544Z,6.50
2023-02-11T04:20:15.826Z,7.67
2023-02-11T04:22:44.161Z,6.97
2023-02-11T04:25:14.251Z,7.03
2023-02-11T04:27:42.670Z,12.23
2023-02-11T04:30:12.424Z,6.63
2023-02-11T04:32:40.768Z,8.03
2023-02-11T04:35:11.830Z,4.83
2023-02-11T04:37:40.136Z,10.03
2023-02-11T04:40:09.672Z,6.70
2023-02-11T04:42:39.356Z,8.33
2023-02-11T04:45:08.823Z,14.27
2023-02-11T04:47:38.085Z,6.03
2023-02-11T04:50:07.218Z,5.97
2023-02-11T04:52:36.997Z,5.93
2023-02-11T04:55:05.586Z,7.33
2023-02-11T04:57:33.811Z,6.80
2023-02-11T05:00:04.060Z,8.23
2023-02-11T05:02:32.425Z,11.40
2023-02-11T05:05:00.687Z,5.33
2023-02-11T05:07:29.065Z,6.13
2023-02-11T05:09:57.412Z,9.70
2023-02-11T05:12:25.637Z,8.40
2023-02-11T05:14:53.953Z,10.53
2023-02-11T05:17:23.766Z,9.23
2023-02-11T05:19:51.994Z,8.13
2023-02-11T05:22:21.978Z,6.93
2023-02-11T05:24:50.341Z,9.30
2023-02-11T05:27:18.595Z,11.57
2023-02-11T05:29:46.947Z,11.57
2023-02-11T05:32:15.227Z,9.17
2023-02-11T05:34:44.881Z,14.27
2023-02-11T05:37:13.260Z,7.67
2023-02-11T05:39:41.638Z,9.30
2023-02-11T05:42:10.237Z,8.77
2023-02-11T05:44:39.226Z,11.23
2023-02-11T05:47:09.596Z,7.43
2023-02-11T05:49:38.399Z,7.23
2023-02-11T05:52:09.374Z,5.73
2023-02-11T05:54:37.609Z,9.60
2023-02-11T05:57:05.902Z,8.27
2023-02-11T05:59:34.103Z,7.07
2023-02-11T06:02:02.339Z,3.83
2023-02-11T06:04:30.570Z,7.57
2023-02-11T06:06:58.900Z,9.63
2023-02-11T06:09:28.751Z,7.93
2023-02-11T06:11:56.977Z,12.70
2023-02-11T06:14:25.255Z,7.97
2023-02-11T06:16:53.481Z,6.47
2023-02-11T06:19:21.734Z,7.83
2023-02-11T06:21:50.035Z,9.47
2023-02-11T06:24:38.424Z,6.97
2023-02-11T06:27:08.311Z,9.57
2023-02-11T06:29:36.575Z,8.07
2023-02-11T06:32:05.044Z,8.60
2023-02-11T06:34:33.388Z,6.43
2023-02-11T06:37:04.643Z,9.00
2023-02-11T06:39:32.963Z,8.37
2023-02-11T06:42:01.243Z,9.27
2023-02-11T06:44:30.976Z,5.33
2023-02-11T06:47:00.500Z,5.53
2023-02-11T06:49:29.152Z,6.37
2023-02-11T06:51:57.777Z,5.57
2023-02-11T06:54:26.741Z,7.03
2023-02-11T06:56:55.245Z,6.30
2023-02-11T06:59:23.599Z,7.13
2023-02-11T07:01:53.291Z,9.57
2023-02-11T07:04:22.812Z,3.93
2023-02-11T07:06:51.041Z,3.53
2023-02-11T07:09:25.201Z,6.20
2023-02-11T07:11:53.472Z,6.63
2023-02-11T07:14:22.070Z,5.97
2023-02-11T07:16:51.004Z,5.20
2023-02-11T07:19:20.781Z,7.50
2023-02-11T07:21:49.919Z,6.07
2023-02-11T07:24:18.309Z,8.03
2023-02-11T07:26:46.574Z,3.50
2023-02-11T07:29:14.804Z,7.03
2023-02-11T07:31:43.316Z,5.10
2023-02-11T07:34:12.240Z,4.80
2023-02-11T07:36:43.820Z,3.70
2023-02-11T07:39:12.589Z,5.27
2023-02-11T07:41:40.912Z,7.87
2023-02-11T07:44:12.359Z,4.73
2023-02-11T07:46:43.160Z,4.33
2023-02-11T07:49:11.845Z,5.07
2023-02-11T07:51:41.530Z,7.53
2023-02-11T07:54:12.228Z,5.07
2023-02-11T07:56:40.654Z,5.27
2023-02-11T07:59:08.987Z,6.40
2023-02-11T08:01:37.164Z,2.57
2023-02-11T08:04:05.940Z,2.83
2023-02-11T08:06:41.332Z,7.50
2023-02-11T08:09:16.920Z,2.30
2023-02-11T08:11:46.918Z,2.30
2023-02-11T08:14:15.330Z,0.90
2023-02-11T08:16:43.867Z,0.70
2023-02-11T08:19:14.563Z,1.33
2023-02-11T08:21:43.235Z,3.20
2023-02-11T08:24:13.522Z,1.30
2023-02-11T08:26:41.834Z,1.23
2023-02-11T08:29:12.908Z,1.00
2023-02-11T08:31:43.746Z,0.90
2023-02-11T08:34:14.600Z,1.07
2023-02-11T08:36:45.094Z,1.53
2023-02-11T08:39:20.644Z,1.23
2023-02-11T08:41:50.691Z,1.13
2023-02-11T08:44:19.742Z,1.93
2023-02-11T08:46:48.951Z,1.97
2023-02-11T08:49:17.542Z,1.73
2023-02-11T08:51:47.211Z,3.13
2023-02-11T08:54:17.673Z,1.30
2023-02-11T08:56:50.188Z,3.17
2023-02-11T08:59:21.917Z,3.97
2023-02-11T09:01:50.640Z,4.53
2023-02-11T09:04:19.306Z,1.47
2023-02-11T09:06:49.257Z,1.90
2023-02-11T09:09:18.970Z,2.17
2023-02-11T09:11:48.338Z,2.67
2023-02-11T09:14:19.881Z,1.67
2023-02-11T09:16:48.139Z,1.63
2023-02-11T09:19:16.487Z,1.97
2023-02-11T09:21:45.660Z,1.20
2023-02-11T09:24:13.913Z,1.63
2023-02-11T09:26:44.387Z,2.70
2023-02-11T09:29:12.776Z,1.30
2023-02-11T09:31:41.177Z,1.73
2023-02-11T09:34:09.720Z,1.77
2023-02-11T09:36:40.227Z,4.53
2023-02-11T09:39:12.637Z,2.37
2023-02-11T09:42:01.083Z,2.20
2023-02-11T09:44:32.846Z,5.70
2023-02-11T09:47:03.386Z,1.93
2023-02-11T09:49:40.517Z,2.53
2023-02-11T09:52:18.226Z,2.30
2023-02-11T09:54:57.128Z,2.83
2023-02-11T09:57:31.407Z,3.73
2023-02-11T09:59:59.783Z,2.60
2023-02-11T10:02:36.619Z,2.20
2023-02-11T10:05:19.638Z,2.73
2023-02-11T10:07:55.874Z,1.37
2023-02-11T10:10:37.043Z,2.63
2023-02-11T10:13:31.453Z,2.30
2023-02-11T10:16:07.384Z,2.07
2023-02-11T10:18:45.105Z,4.40
2023-02-11T10:21:27.006Z,1.77
2023-02-11T10:24:01.510Z,1.13
2023-02-11T10:26:40.839Z,2.23
2023-02-11T10:29:20.408Z,1.87
2023-02-11T10:31:51.099Z,2.77
2023-02-11T10:34:19.382Z,2.07
2023-02-11T10:36:47.762Z,2.27
2023-02-11T10:39:19.741Z,1.10
2023-02-11T10:41:50.050Z,2.17
2023-02-11T10:44:26.172Z,2.40
2023-02-11T10:46:55.837Z,2.90
2023-02-11T10:49:40.589Z,2.30
2023-02-11T10:52:20.947Z,3.37
2023-02-11T10:55:16.218Z,5.53
2023-02-11T10:57:53.703Z,4.83
2023-02-11T11:00:34.232Z,1.90
2023-02-11T11:03:03.402Z,1.77
2023-02-11T11:05:34.062Z,1.87
2023-02-11T11:08:06.090Z,5.23
2023-02-11T11:10:43.714Z,3.00
2023-02-11T11:13:31.133Z,2.63
2023-02-11T11:16:17.443Z,3.53
2023-02-11T11:18:47.075Z,2.23
2023-02-11T11:21:17.709Z,4.13
2023-02-11T11:23:55.354Z,2.17
2023-02-11T11:26:24.442Z,2.43
2023-02-11T11:28:57.483Z,1.30
2023-02-11T11:31:32.479Z,2.70
2023-02-11T11:34:03.175Z,1.93
2023-02-11T11:36:37.649Z,1.87
2023-02-11T11:39:20.349Z,1.73
2023-02-11T11:41:54.060Z,2.20
2023-02-11T11:44:31.678Z,2.53
2023-02-11T11:47:39.287Z,2.33
2023-02-11T11:50:26.856Z,2.57
2023-02-11T11:53:01.705Z,3.23
2023-02-11T11:55:36.569Z,3.33
2023-02-11T11:58:07.036Z,4.10
2023-02-11T12:00:42.804Z,3.13
2023-02-11T12:03:41.694Z,2.57
2023-02-11T12:06:28.224Z,1.73
2023-02-11T12:09:09.069Z,3.03
2023-02-11T12:11:55.010Z,2.20
2023-02-11T12:14:36.327Z,2.27
2023-02-11T12:17:12.750Z,5.50
2023-02-11T12:20:13.137Z,2.30
2023-02-11T12:22:53.002Z,3.77
2023-02-11T12:25:28.373Z,1.20
2023-02-11T12:28:09.206Z,1.93
2023-02-11T12:30:51.155Z,1.90
2023-02-11T12:33:36.428Z,3.37
2023-02-11T12:36:12.441Z,1.93
2023-02-11T12:38:56.201Z,2.90
2023-02-11T12:41:55.574Z,2.87
2023-02-11T12:44:35.484Z,2.57
2023-02-11T12:47:15.388Z,1.53
2023-02-11T12:49:58.957Z,5.63
2023-02-11T12:52:43.499Z,2.67
2023-02-11T12:55:21.857Z,2.07
2023-02-11T12:57:51.842Z,4.23
2023-02-11T13:00:24.924Z,1.83
2023-02-11T13:03:00.500Z,4.67
2023-02-11T13:05:31.124Z,4.37
2023-02-11T13:08:05.914Z,2.33
2023-02-11T13:10:37.720Z,4.23
2023-02-11T13:13:18.944Z,5.03
2023-02-11T13:15:51.676Z,2.70
2023-02-11T13:18:32.009Z,2.20
2023-02-11T13:21:09.836Z,4.03
2023-02-11T13:23:46.054Z,1.53
2023-02-11T13:26:21.108Z,2.47
2023-02-11T13:28:56.392Z,1.63
2023-02-11T13:31:27.614Z,3.37
2023-02-11T13:33:56.021Z,3.90
2023-02-11T13:36:27.085Z,2.97
2023-02-11T13:39:08.132Z,4.20
2023-02-11T13:41:42.030Z,2.70
2023-02-11T13:44:28.827Z,1.73
2023-02-11T13:47:01.498Z,3.13
2023-02-11T13:49:37.691Z,1.80
2023-02-11T13:52:17.958Z,1.70
2023-02-11T13:54:52.002Z,4.33
2023-02-11T13:57:36.107Z,2.00
2023-02-11T14:00:40.592Z,4.80
2023-02-11T14:03:49.673Z,4.60
2023-02-11T14:06:42.767Z,5.10
2023-02-11T14:09:36.414Z,1.87
2023-02-11T14:12:32.381Z,4.27
2023-02-11T14:15:06.023Z,3.57
2023-02-11T14:17:36.176Z,1.57
2023-02-11T14:20:25.946Z,2.57
2023-02-11T14:22:55.020Z,4.07
2023-02-11T14:25:26.192Z,2.70
2023-02-11T14:28:02.616Z,4.07
2023-02-11T14:30:50.688Z,5.43
2023-02-11T14:33:44.827Z,3.73
2023-02-11T14:36:35.129Z,5.47
2023-02-11T14:39:10.979Z,5.87
2023-02-11T14:41:43.069Z,2.90
2023-02-11T14:44:17.569Z,2.63
2023-02-11T14:46:47.516Z,2.60
2023-02-11T14:49:22.633Z,3.90
2023-02-11T14:51:54.281Z,6.57
2023-02-11T14:54:26.875Z,4.63
2023-02-11T14:57:16.951Z,4.27
2023-02-11T14:59:59.201Z,8.10
2023-02-11T15:02:32.151Z,2.60
2023-02-11T15:05:17.723Z,4.47
2023-02-11T15:07:49.147Z,3.30
2023-02-11T15:10:36.498Z,11.40
2023-02-11T15:13:06.422Z,4.47
2023-02-11T15:15:37.914Z,10.03
2023-02-11T15:18:07.036Z,3.63
2023-02-11T15:20:36.045Z,5.47
2023-02-11T15:23:09.560Z,4.50
2023-02-11T15:25:46.137Z,3.57
2023-02-11T15:28:23.165Z,3.73
2023-02-11T15:31:00.859Z,6.00
2023-02-11T15:33:33.134Z,6.53
2023-02-11T15:36:04.817Z,5.80
2023-02-11T15:38:33.409Z,2.50
2023-02-11T15:41:03.698Z,3.77
2023-02-11T15:43:45.719Z,4.10
2023-02-11T15:46:18.468Z,7.60
2023-02-11T15:48:49.107Z,5.30
2023-02-11T15:51:22.320Z,7.37
2023-02-11T15:53:57.021Z,9.43
2023-02-11T15:56:31.175Z,6.73
2023-02-11T15:59:01.571Z,5.57
2023-02-11T16:01:34.340Z,2.87
2023-02-11T16:04:05.492Z,2.97
2023-02-11T16:06:39.635Z,4.37
2023-02-11T16:09:25.422Z,3.83
2023-02-11T16:11:59.006Z,5.90
2023-02-11T16:14:32.720Z,10.53
2023-02-11T16:17:06.642Z,8.07
2023-02-11T16:19:36.225Z,9.10
2023-02-11T16:22:11.561Z,14.00
2023-02-11T16:24:40.882Z,10.47
2023-02-11T16:27:23.613Z,9.17
2023-02-11T16:29:53.370Z,5.43
2023-02-11T16:32:24.745Z,4.30
2023-02-11T16:34:55.237Z,5.90
2023-02-11T16:37:23.641Z,9.43
2023-02-11T16:39:54.520Z,5.43
2023-02-11T16:42:23.398Z,6.30
2023-02-11T16:44:51.738Z,4.87
2023-02-11T16:47:24.829Z,2.60
2023-02-11T16:49:54.547Z,2.57
2023-02-11T16:52:23.827Z,7.37
2023-02-11T16:54:52.488Z,11.00
2023-02-11T16:57:22.751Z,5.73
2023-02-11T16:59:51.631Z,8.87
2023-02-11T17:02:26.526Z,4.60
2023-02-11T17:05:00.629Z,4.43
2023-02-11T17:07:29.986Z,9.63
2023-02-11T17:09:58.674Z,4.70
2023-02-11T17:12:27.274Z,5.43
2023-02-11T17:14:56.403Z,3.90
2023-02-11T17:17:26.097Z,5.93
2023-02-11T17:19:54.365Z,5.23
2023-02-11T17:22:22.625Z,4.40
2023-02-11T17:24:51.028Z,5.20
2023-02-11T17:27:19.373Z,5.43
2023-02-11T17:29:47.657Z,6.37
2023-02-11T17:32:16.145Z,5.27
2023-02-11T17:34:45.969Z,3.57
2023-02-11T17:37:14.236Z,3.80
2023-02-11T17:39:42.541Z,5.67
2023-02-11T17:42:11.838Z,6.30
2023-02-11T17:44:40.162Z,7.40
2023-02-11T17:47:08.448Z,4.93
2023-02-11T17:49:36.684Z,6.33
2023-02-11T17:52:12.153Z,7.20
2023-02-11T17:54:40.505Z,10.60
2023-02-11T17:57:08.689Z,4.60
2023-02-11T17:59:36.953Z,5.50
2023-02-11T18:02:05.876Z,4.23
2023-02-11T18:04:34.900Z,14.30
2023-02-11T18:07:03.162Z,18.30
2023-02-11T18:09:32.888Z,10.23
2023-02-11T18:12:01.189Z,5.10
2023-02-11T18:14:29.375Z,6.10
2023-02-11T18:16:57.780Z,7.57
2023-02-11T18:19:26.226Z,6.83
2023-02-11T18:21:54.480Z,2.80
2023-02-11T18:24:22.820Z,6.23
2023-02-11T18:26:52.460Z,6.40
2023-02-11T18:29:20.812Z,7.80
2023-02-11T18:31:49.014Z,5.70
2023-02-11T18:34:17.465Z,3.77
2023-02-11T18:36:45.895Z,5.80
2023-02-11T18:39:14.084Z,7.10
2023-02-11T18:41:43.679Z,5.13
2023-02-11T18:44:14.717Z,7.30
2023-02-11T18:46:42.908Z,4.40
2023-02-11T18:49:13.282Z,3.80
2023-02-11T18:51:41.586Z,5.43
2023-02-11T18:54:10.584Z,7.63
2023-02-11T18:56:38.812Z,6.27
2023-02-11T18:59:07.368Z,7.90
2023-02-11T19:01:40.080Z,5.87
2023-02-11T19:04:08.533Z,7.13
2023-02-11T19:06:38.670Z,8.03
2023-02-11T19:09:09.946Z,11.03
2023-02-11T19:11:50.526Z,7.30
2023-02-11T19:14:22.311Z,7.73
2023-02-11T19:16:53.654Z,8.17
2023-02-11T19:19:23.818Z,4.23
2023-02-11T19:21:52.370Z,6.00
2023-02-11T19:24:21.005Z,7.63
2023-02-11T19:26:50.951Z,4.80
2023-02-11T19:29:19.559Z,7.43
2023-02-11T19:31:48.124Z,7.83
2023-02-11T19:34:21.122Z,7.17
2023-02-11T19:36:50.536Z,9.87
2023-02-11T19:39:19.022Z,7.23
2023-02-11T19:41:47.276Z,5.83
2023-02-11T19:44:16.255Z,5.87
2023-02-11T19:46:44.818Z,9.40
2023-02-11T19:49:23.266Z,4.53
2023-02-11T19:51:54.279Z,5.73
2023-02-11T19:54:23.309Z,4.40
2023-02-11T19:56:51.495Z,4.90
2023-02-11T19:59:19.914Z,4.93
2023-02-11T20:01:49.230Z,10.93
2023-02-11T20:04:19.864Z,3.80
2023-02-11T20:06:49.557Z,6.83
2023-02-11T20:09:17.909Z,6.17
2023-02-11T20:11:46.109Z,5.77
2023-02-11T20:14:15.982Z,6.43
2023-02-11T20:16:49.293Z,11.83
2023-02-11T20:19:21.747Z,17.57
2023-02-11T20:21:53.392Z,9.57
2023-02-11T20:24:21.613Z,7.63
2023-02-11T20:26:55.400Z,9.03
2023-02-11T20:29:24.456Z,5.63
2023-02-11T20:31:52.796Z,8.00
2023-02-11T20:34:22.637Z,11.07
2023-02-11T20:37:05.471Z,14.07
2023-02-11T20:39:35.897Z,8.40
2023-02-11T20:42:04.255Z,11.70
2023-02-11T20:44:32.637Z,12.40
2023-02-11T20:47:00.809Z,13.87
2023-02-11T20:49:30.538Z,12.73
2023-02-11T20:51:59.780Z,7.47
2023-02-11T20:54:28.114Z,9.63
2023-02-11T20:56:58.216Z,12.73
2023-02-11T20:59:27.226Z,11.13
2023-02-11T21:01:57.110Z,9.33
2023-02-11T21:04:27.130Z,9.37
2023-02-11T21:06:59.598Z,9.70
2023-02-11T21:09:30.421Z,12.50
2023-02-11T21:11:58.855Z,11.70
2023-02-11T21:14:28.303Z,15.40
2023-02-11T21:16:56.816Z,11.13
2023-02-11T21:19:25.054Z,8.37
2023-02-11T21:21:54.889Z,10.43
2023-02-11T21:24:24.980Z,6.10
2023-02-11T21:26:53.296Z,9.27
2023-02-11T21:29:21.550Z,9.70
2023-02-11T21:31:51.465Z,10.37
2023-02-11T21:34:20.830Z,7.90
2023-02-11T21:36:51.369Z,5.80
2023-02-11T21:39:20.310Z,6.63
2023-02-11T21:41:50.174Z,8.03
2023-02-11T21:44:18.529Z,8.63
2023-02-11T21:46:47.798Z,6.57
2023-02-11T21:49:16.064Z,5.67
2023-02-11T21:51:44.287Z,5.97
2023-02-11T21:54:16.040Z,7.10
2023-02-11T21:56:44.620Z,4.93
2023-02-11T21:59:15.021Z,5.07
2023-02-11T22:01:43.664Z,6.97
2023-02-11T22:04:11.969Z,6.83
2023-02-11T22:06:40.887Z,6.07
2023-02-11T22:09:11.653Z,5.77
2023-02-11T22:11:40.051Z,5.33
2023-02-11T22:14:08.935Z,3.37
2023-02-11T22:16:38.776Z,4.40
2023-02-11T22:19:07.678Z,4.40
2023-02-11T22:21:36.054Z,5.37
2023-02-11T22:24:04.299Z,3.03
2023-02-11T22:26:32.578Z,3.13
2023-02-11T22:29:00.853Z,3.50
2023-02-11T22:31:31.136Z,5.60
2023-02-11T22:34:02.185Z,3.53
2023-02-11T22:36:32.167Z,4.70
2023-02-11T22:39:03.112Z,2.77
2023-02-11T22:41:31.645Z,4.47
2023-02-11T22:44:00.003Z,6.13
2023-02-11T22:46:28.305Z,2.93
2023-02-11T22:48:56.822Z,3.10
2023-02-11T22:51:30.423Z,2.20
2023-02-11T22:54:00.585Z,2.33
2023-02-11T22:56:36.404Z,3.87
2023-02-11T22:59:07.488Z,5.30
2023-02-11T23:01:36.483Z,4.13
2023-02-11T23:04:06.681Z,2.37
2023-02-11T23:06:36.416Z,4.50
2023-02-11T23:09:05.423Z,4.03
2023-02-11T23:11:34.331Z,6.17
2023-02-11T23:14:03.693Z,5.67
2023-02-11T23:16:34.147Z,2.73
2023-02-11T23:19:04.006Z,3.93
2023-02-11T23:21:34.595Z,3.43
2023-02-11T23:24:07.270Z,2.03
2023-02-11T23:26:35.862Z,2.80
2023-02-11T23:29:04.091Z,2.93
2023-02-11T23:31:35.104Z,4.17
2023-02-11T23:34:03.595Z,2.77
2023-02-11T23:36:32.313Z,3.77
2023-02-11T23:39:00.545Z,2.37
2023-02-11T23:41:30.358Z,2.43
2023-02-11T23:43:59.411Z,3.67
2023-02-11T23:46:28.644Z,3.57
2023-02-11T23:48:56.851Z,4.60
2023-02-11T23:51:27.266Z,3.33
2023-02-11T23:53:56.277Z,5.03
2023-02-11T23:56:27.583Z,6.67
2023-02-11T23:58:59.201Z,4.33
